sensor_id;sensor_type;location;lat;lon;timestamp;temperature;humidity
23703;DHT22;12030;50.376;8.762;2023-05-07T00:00:33;14.70;99.90
23703;DHT22;12030;50.376;8.762;2023-05-07T00:02:59;14.70;99.90
23703;DHT22;12030;50.376;8.762;2023-05-07T00:05:25;14.70;99.90
23703;DHT22;12030;50.376;8.762;2023-05-07T00:07:51;14.70;99.90
23703;DHT22;12030;50.376;8.762;2023-05-07T00:10:18;14.60;99.90
23703;DHT22;12030;50.376;8.762;2023-05-07T00:12:45;14.60;99.90
23703;DHT22;12030;50.376;8.762;2023-05-07T00:15:10;14.60;99.90
23703;DHT22;12030;50.376;8.762;2023-05-07T00:17:38;14.60;99.90
23703;DHT22;12030;50.376;8.762;2023-05-07T00:20:04;14.50;99.90
23703;DHT22;12030;50.376;8.762;2023-05-07T00:22:31;14.50;99.90
23703;DHT22;12030;50.376;8.762;2023-05-07T00:24:57;14.50;99.90
23703;DHT22;12030;50.376;8.762;2023-05-07T00:27:24;14.60;99.90
23703;DHT22;12030;50.376;8.762;2023-05-07T00:29:51;14.60;99.90
23703;DHT22;12030;50.376;8.762;2023-05-07T00:32:17;14.60;99.90
23703;DHT22;12030;50.376;8.762;2023-05-07T00:34:43;14.60;99.90
23703;DHT22;12030;50.376;8.762;2023-05-07T00:37:09;14.50;99.90
23703;DHT22;12030;50.376;8.762;2023-05-07T00:39:37;14.50;99.90
23703;DHT22;12030;50.376;8.762;2023-05-07T00:42:03;14.40;99.90
23703;DHT22;12030;50.376;8.762;2023-05-07T00:44:29;14.60;99.90
23703;DHT22;12030;50.376;8.762;2023-05-07T00:46:57;14.60;99.90
23703;DHT22;12030;50.376;8.762;2023-05-07T00:49:26;14.50;99.90
23703;DHT22;12030;50.376;8.762;2023-05-07T00:51:56;14.50;99.90
23703;DHT22;12030;50.376;8.762;2023-05-07T00:54:22;14.50;99.90
23703;DHT22;12030;50.376;8.762;2023-05-07T00:56:47;14.50;99.90
23703;DHT22;12030;50.376;8.762;2023-05-07T00:59:13;14.50;99.90
23703;DHT22;12030;50.376;8.762;2023-05-07T01:01:39;14.40;99.90
23703;DHT22;12030;50.376;8.762;2023-05-07T01:04:04;14.40;99.90
23703;DHT22;12030;50.376;8.762;2023-05-07T01:06:32;14.40;99.90
23703;DHT22;12030;50.376;8.762;2023-05-07T01:08:59;14.40;99.90
23703;DHT22;12030;50.376;8.762;2023-05-07T01:11:25;14.40;99.90
23703;DHT22;12030;50.376;8.762;2023-05-07T01:13:51;14.40;99.90
23703;DHT22;12030;50.376;8.762;2023-05-07T01:16:17;14.40;99.90
23703;DHT22;12030;50.376;8.762;2023-05-07T01:18:43;14.40;99.90
23703;DHT22;12030;50.376;8.762;2023-05-07T01:21:11;14.40;99.90
23703;DHT22;12030;50.376;8.762;2023-05-07T01:23:37;14.40;99.90
23703;DHT22;12030;50.376;8.762;2023-05-07T01:26:03;14.30;99.90
23703;DHT22;12030;50.376;8.762;2023-05-07T01:28:29;14.40;99.90
23703;DHT22;12030;50.376;8.762;2023-05-07T01:30:59;14.30;99.90
23703;DHT22;12030;50.376;8.762;2023-05-07T01:33:27;14.40;99.90
23703;DHT22;12030;50.376;8.762;2023-05-07T01:35:55;14.40;99.90
23703;DHT22;12030;50.376;8.762;2023-05-07T01:38:22;14.30;99.90
23703;DHT22;12030;50.376;8.762;2023-05-07T01:40:49;14.30;99.90
23703;DHT22;12030;50.376;8.762;2023-05-07T01:43:15;14.30;99.90
23703;DHT22;12030;50.376;8.762;2023-05-07T01:45:41;14.40;99.90
23703;DHT22;12030;50.376;8.762;2023-05-07T01:48:10;14.40;99.90
23703;DHT22;12030;50.376;8.762;2023-05-07T01:50:37;14.40;99.90
23703;DHT22;12030;50.376;8.762;2023-05-07T01:53:02;14.40;99.90
23703;DHT22;12030;50.376;8.762;2023-05-07T01:55:28;14.40;99.90
23703;DHT22;12030;50.376;8.762;2023-05-07T01:57:53;14.30;99.90
23703;DHT22;12030;50.376;8.762;2023-05-07T02:00:20;14.30;99.90
23703;DHT22;12030;50.376;8.762;2023-05-07T02:02:46;14.30;99.90
23703;DHT22;12030;50.376;8.762;2023-05-07T02:05:11;14.30;99.90
23703;DHT22;12030;50.376;8.762;2023-05-07T02:07:37;14.30;99.90
23703;DHT22;12030;50.376;8.762;2023-05-07T02:10:03;14.30;99.90
23703;DHT22;12030;50.376;8.762;2023-05-07T02:12:28;14.30;99.90
23703;DHT22;12030;50.376;8.762;2023-05-07T02:14:54;14.30;99.90
23703;DHT22;12030;50.376;8.762;2023-05-07T02:17:20;14.20;99.90
23703;DHT22;12030;50.376;8.762;2023-05-07T02:19:47;14.20;99.90
23703;DHT22;12030;50.376;8.762;2023-05-07T02:22:12;14.20;99.90
23703;DHT22;12030;50.376;8.762;2023-05-07T02:24:38;14.20;99.90
23703;DHT22;12030;50.376;8.762;2023-05-07T02:27:03;14.10;99.90
23703;DHT22;12030;50.376;8.762;2023-05-07T02:29:29;14.10;99.90
23703;DHT22;12030;50.376;8.762;2023-05-07T02:31:55;14.10;99.90
23703;DHT22;12030;50.376;8.762;2023-05-07T02:34:21;14.10;99.90
23703;DHT22;12030;50.376;8.762;2023-05-07T02:36:46;14.10;99.90
23703;DHT22;12030;50.376;8.762;2023-05-07T02:39:13;14.10;99.90
23703;DHT22;12030;50.376;8.762;2023-05-07T02:41:39;14.10;99.90
23703;DHT22;12030;50.376;8.762;2023-05-07T02:44:04;14.10;99.90
23703;DHT22;12030;50.376;8.762;2023-05-07T02:46:30;14.10;99.90
23703;DHT22;12030;50.376;8.762;2023-05-07T02:48:55;14.10;99.90
23703;DHT22;12030;50.376;8.762;2023-05-07T02:51:22;14.10;99.90
23703;DHT22;12030;50.376;8.762;2023-05-07T02:53:48;14.10;99.90
23703;DHT22;12030;50.376;8.762;2023-05-07T02:56:14;14.10;99.90
23703;DHT22;12030;50.376;8.762;2023-05-07T02:58:40;14.10;99.90
23703;DHT22;12030;50.376;8.762;2023-05-07T03:01:06;14.10;99.90
23703;DHT22;12030;50.376;8.762;2023-05-07T03:03:32;14.10;99.90
23703;DHT22;12030;50.376;8.762;2023-05-07T03:05:57;14.10;99.90
23703;DHT22;12030;50.376;8.762;2023-05-07T03:08:24;14.00;99.90
23703;DHT22;12030;50.376;8.762;2023-05-07T03:10:50;14.00;99.90
23703;DHT22;12030;50.376;8.762;2023-05-07T03:13:16;14.00;99.90
23703;DHT22;12030;50.376;8.762;2023-05-07T03:15:42;14.00;99.90
23703;DHT22;12030;50.376;8.762;2023-05-07T03:18:08;13.90;99.90
23703;DHT22;12030;50.376;8.762;2023-05-07T03:20:33;13.90;99.90
23703;DHT22;12030;50.376;8.762;2023-05-07T03:22:59;13.90;99.90
23703;DHT22;12030;50.376;8.762;2023-05-07T03:25:26;14.00;99.90
23703;DHT22;12030;50.376;8.762;2023-05-07T03:27:51;13.90;99.90
23703;DHT22;12030;50.376;8.762;2023-05-07T03:30:17;13.90;99.90
23703;DHT22;12030;50.376;8.762;2023-05-07T03:32:42;13.90;99.90
23703;DHT22;12030;50.376;8.762;2023-05-07T03:35:09;13.90;99.90
23703;DHT22;12030;50.376;8.762;2023-05-07T03:37:35;13.90;99.90
23703;DHT22;12030;50.376;8.762;2023-05-07T03:40:00;13.90;99.90
23703;DHT22;12030;50.376;8.762;2023-05-07T03:42:26;13.90;99.90
23703;DHT22;12030;50.376;8.762;2023-05-07T03:44:52;13.80;99.90
23703;DHT22;12030;50.376;8.762;2023-05-07T03:47:17;13.80;99.90
23703;DHT22;12030;50.376;8.762;2023-05-07T03:49:43;13.80;99.90
23703;DHT22;12030;50.376;8.762;2023-05-07T03:52:08;13.80;99.90
23703;DHT22;12030;50.376;8.762;2023-05-07T03:54:34;13.80;99.90
23703;DHT22;12030;50.376;8.762;2023-05-07T03:57:00;13.80;99.90
23703;DHT22;12030;50.376;8.762;2023-05-07T03:59:27;13.80;99.90
23703;DHT22;12030;50.376;8.762;2023-05-07T04:01:52;13.80;99.90
23703;DHT22;12030;50.376;8.762;2023-05-07T04:04:18;13.80;99.90
23703;DHT22;12030;50.376;8.762;2023-05-07T04:06:43;13.80;99.90
23703;DHT22;12030;50.376;8.762;2023-05-07T04:09:09;13.80;99.90
23703;DHT22;12030;50.376;8.762;2023-05-07T04:11:35;13.80;99.90
23703;DHT22;12030;50.376;8.762;2023-05-07T04:14:01;13.80;99.90
23703;DHT22;12030;50.376;8.762;2023-05-07T04:16:27;13.80;99.90
23703;DHT22;12030;50.376;8.762;2023-05-07T04:18:52;13.80;99.90
23703;DHT22;12030;50.376;8.762;2023-05-07T04:21:19;13.80;99.90
23703;DHT22;12030;50.376;8.762;2023-05-07T04:23:46;13.80;99.90
23703;DHT22;12030;50.376;8.762;2023-05-07T04:26:12;13.80;99.90
23703;DHT22;12030;50.376;8.762;2023-05-07T04:28:38;13.70;99.90
23703;DHT22;12030;50.376;8.762;2023-05-07T04:31:04;13.80;99.90
23703;DHT22;12030;50.376;8.762;2023-05-07T04:33:30;13.80;99.90
23703;DHT22;12030;50.376;8.762;2023-05-07T04:35:55;13.70;99.90
23703;DHT22;12030;50.376;8.762;2023-05-07T04:38:21;13.70;99.90
23703;DHT22;12030;50.376;8.762;2023-05-07T04:40:48;13.80;99.90
23703;DHT22;12030;50.376;8.762;2023-05-07T04:43:15;13.80;99.90
23703;DHT22;12030;50.376;8.762;2023-05-07T04:45:41;13.80;99.90
23703;DHT22;12030;50.376;8.762;2023-05-07T04:48:08;13.80;99.90
23703;DHT22;12030;50.376;8.762;2023-05-07T04:50:34;13.90;99.90
23703;DHT22;12030;50.376;8.762;2023-05-07T04:52:59;13.90;99.90
23703;DHT22;12030;50.376;8.762;2023-05-07T04:55:25;13.90;99.90
23703;DHT22;12030;50.376;8.762;2023-05-07T04:57:51;13.90;99.90
23703;DHT22;12030;50.376;8.762;2023-05-07T05:00:17;14.00;99.90
23703;DHT22;12030;50.376;8.762;2023-05-07T05:02:45;14.00;99.90
23703;DHT22;12030;50.376;8.762;2023-05-07T05:05:10;14.00;99.90
23703;DHT22;12030;50.376;8.762;2023-05-07T05:07:36;14.00;99.90
23703;DHT22;12030;50.376;8.762;2023-05-07T05:10:02;14.00;99.90
23703;DHT22;12030;50.376;8.762;2023-05-07T05:12:29;14.10;99.90
23703;DHT22;12030;50.376;8.762;2023-05-07T05:14:55;14.10;99.90
23703;DHT22;12030;50.376;8.762;2023-05-07T05:17:21;14.10;99.90
23703;DHT22;12030;50.376;8.762;2023-05-07T05:19:46;14.20;99.90
23703;DHT22;12030;50.376;8.762;2023-05-07T05:22:12;14.20;99.90
23703;DHT22;12030;50.376;8.762;2023-05-07T05:24:37;14.30;99.90
23703;DHT22;12030;50.376;8.762;2023-05-07T05:27:03;14.30;99.90
23703;DHT22;12030;50.376;8.762;2023-05-07T05:29:28;14.40;99.90
23703;DHT22;12030;50.376;8.762;2023-05-07T05:31:54;14.40;99.90
23703;DHT22;12030;50.376;8.762;2023-05-07T05:34:19;14.40;99.90
23703;DHT22;12030;50.376;8.762;2023-05-07T05:36:45;14.40;99.90
23703;DHT22;12030;50.376;8.762;2023-05-07T05:39:11;14.40;99.90
23703;DHT22;12030;50.376;8.762;2023-05-07T05:41:37;14.40;99.90
23703;DHT22;12030;50.376;8.762;2023-05-07T05:44:03;14.40;99.90
23703;DHT22;12030;50.376;8.762;2023-05-07T05:46:29;14.50;99.90
23703;DHT22;12030;50.376;8.762;2023-05-07T05:48:55;14.50;99.90
23703;DHT22;12030;50.376;8.762;2023-05-07T05:51:21;14.50;99.90
23703;DHT22;12030;50.376;8.762;2023-05-07T05:53:46;14.60;99.90
23703;DHT22;12030;50.376;8.762;2023-05-07T05:56:12;14.70;99.90
23703;DHT22;12030;50.376;8.762;2023-05-07T05:58:37;14.70;99.90
23703;DHT22;12030;50.376;8.762;2023-05-07T06:01:03;14.80;99.90
23703;DHT22;12030;50.376;8.762;2023-05-07T06:03:30;14.80;99.90
23703;DHT22;12030;50.376;8.762;2023-05-07T06:05:55;14.90;99.90
23703;DHT22;12030;50.376;8.762;2023-05-07T06:08:21;14.90;99.90
23703;DHT22;12030;50.376;8.762;2023-05-07T06:10:47;15.00;99.90
23703;DHT22;12030;50.376;8.762;2023-05-07T06:13:12;15.00;99.90
23703;DHT22;12030;50.376;8.762;2023-05-07T06:15:38;15.10;99.90
23703;DHT22;12030;50.376;8.762;2023-05-07T06:18:03;15.20;99.90
23703;DHT22;12030;50.376;8.762;2023-05-07T06:20:29;15.20;99.90
23703;DHT22;12030;50.376;8.762;2023-05-07T06:22:54;15.20;99.90
23703;DHT22;12030;50.376;8.762;2023-05-07T06:25:20;15.40;99.90
23703;DHT22;12030;50.376;8.762;2023-05-07T06:27:45;15.50;99.90
23703;DHT22;12030;50.376;8.762;2023-05-07T06:30:11;15.60;99.90
23703;DHT22;12030;50.376;8.762;2023-05-07T06:32:37;15.60;99.90
23703;DHT22;12030;50.376;8.762;2023-05-07T06:35:02;15.60;99.90
23703;DHT22;12030;50.376;8.762;2023-05-07T06:37:28;15.70;99.90
23703;DHT22;12030;50.376;8.762;2023-05-07T06:39:53;15.80;99.90
23703;DHT22;12030;50.376;8.762;2023-05-07T06:42:19;15.90;99.90
23703;DHT22;12030;50.376;8.762;2023-05-07T06:44:44;15.90;99.90
23703;DHT22;12030;50.376;8.762;2023-05-07T06:47:10;16.00;99.90
23703;DHT22;12030;50.376;8.762;2023-05-07T06:49:35;16.10;99.90
23703;DHT22;12030;50.376;8.762;2023-05-07T06:52:01;16.10;99.90
23703;DHT22;12030;50.376;8.762;2023-05-07T06:54:26;16.20;99.90
23703;DHT22;12030;50.376;8.762;2023-05-07T06:56:52;16.30;99.90
23703;DHT22;12030;50.376;8.762;2023-05-07T06:59:17;16.50;99.90
23703;DHT22;12030;50.376;8.762;2023-05-07T07:01:44;16.60;99.90
23703;DHT22;12030;50.376;8.762;2023-05-07T07:04:10;16.70;99.90
23703;DHT22;12030;50.376;8.762;2023-05-07T07:06:35;16.80;99.90
23703;DHT22;12030;50.376;8.762;2023-05-07T07:09:01;16.90;99.90
23703;DHT22;12030;50.376;8.762;2023-05-07T07:11:26;16.90;99.90
23703;DHT22;12030;50.376;8.762;2023-05-07T07:13:52;17.00;99.90
23703;DHT22;12030;50.376;8.762;2023-05-07T07:16:20;17.20;99.90
23703;DHT22;12030;50.376;8.762;2023-05-07T07:18:45;17.40;99.90
23703;DHT22;12030;50.376;8.762;2023-05-07T07:21:11;17.40;99.90
23703;DHT22;12030;50.376;8.762;2023-05-07T07:23:36;17.50;99.90
23703;DHT22;12030;50.376;8.762;2023-05-07T07:26:02;17.70;99.90
23703;DHT22;12030;50.376;8.762;2023-05-07T07:28:27;17.80;99.90
23703;DHT22;12030;50.376;8.762;2023-05-07T07:30:53;17.90;99.90
23703;DHT22;12030;50.376;8.762;2023-05-07T07:33:18;18.10;99.90
23703;DHT22;12030;50.376;8.762;2023-05-07T07:35:44;18.10;99.90
23703;DHT22;12030;50.376;8.762;2023-05-07T07:38:10;18.10;99.90
23703;DHT22;12030;50.376;8.762;2023-05-07T07:40:35;18.20;99.90
23703;DHT22;12030;50.376;8.762;2023-05-07T07:43:01;18.30;99.90
23703;DHT22;12030;50.376;8.762;2023-05-07T07:45:27;18.40;99.90
23703;DHT22;12030;50.376;8.762;2023-05-07T07:47:52;18.40;99.90
23703;DHT22;12030;50.376;8.762;2023-05-07T07:50:18;18.60;99.90
23703;DHT22;12030;50.376;8.762;2023-05-07T07:52:44;18.70;99.90
23703;DHT22;12030;50.376;8.762;2023-05-07T07:55:09;18.90;99.90
23703;DHT22;12030;50.376;8.762;2023-05-07T07:57:35;19.00;99.90
23703;DHT22;12030;50.376;8.762;2023-05-07T08:00:01;19.10;99.90
23703;DHT22;12030;50.376;8.762;2023-05-07T08:02:26;19.20;99.90
23703;DHT22;12030;50.376;8.762;2023-05-07T08:04:52;19.30;99.90
23703;DHT22;12030;50.376;8.762;2023-05-07T08:07:17;19.30;99.90
23703;DHT22;12030;50.376;8.762;2023-05-07T08:09:45;19.20;99.90
23703;DHT22;12030;50.376;8.762;2023-05-07T08:12:11;19.20;99.90
23703;DHT22;12030;50.376;8.762;2023-05-07T08:14:37;19.30;99.90
23703;DHT22;12030;50.376;8.762;2023-05-07T08:17:02;19.40;99.90
23703;DHT22;12030;50.376;8.762;2023-05-07T08:19:28;19.50;99.90
23703;DHT22;12030;50.376;8.762;2023-05-07T08:21:53;19.50;99.90
23703;DHT22;12030;50.376;8.762;2023-05-07T08:24:19;19.60;99.90
23703;DHT22;12030;50.376;8.762;2023-05-07T08:26:45;19.60;99.90
23703;DHT22;12030;50.376;8.762;2023-05-07T08:29:11;19.50;99.90
23703;DHT22;12030;50.376;8.762;2023-05-07T08:31:36;19.40;99.90
23703;DHT22;12030;50.376;8.762;2023-05-07T08:34:04;19.50;99.90
23703;DHT22;12030;50.376;8.762;2023-05-07T08:36:30;19.80;99.90
23703;DHT22;12030;50.376;8.762;2023-05-07T08:38:55;19.90;99.90
23703;DHT22;12030;50.376;8.762;2023-05-07T08:41:21;20.00;99.90
23703;DHT22;12030;50.376;8.762;2023-05-07T08:43:48;20.20;99.90
23703;DHT22;12030;50.376;8.762;2023-05-07T08:46:18;20.10;99.90
23703;DHT22;12030;50.376;8.762;2023-05-07T08:48:44;20.20;99.90
23703;DHT22;12030;50.376;8.762;2023-05-07T08:51:14;20.30;99.90
23703;DHT22;12030;50.376;8.762;2023-05-07T08:53:41;20.30;99.90
23703;DHT22;12030;50.376;8.762;2023-05-07T08:56:08;20.40;99.90
23703;DHT22;12030;50.376;8.762;2023-05-07T08:58:34;20.50;99.90
23703;DHT22;12030;50.376;8.762;2023-05-07T09:01:05;20.60;99.90
23703;DHT22;12030;50.376;8.762;2023-05-07T09:03:31;20.50;99.90
23703;DHT22;12030;50.376;8.762;2023-05-07T09:05:57;20.50;99.90
23703;DHT22;12030;50.376;8.762;2023-05-07T09:08:25;20.50;99.90
23703;DHT22;12030;50.376;8.762;2023-05-07T09:10:52;20.30;99.90
23703;DHT22;12030;50.376;8.762;2023-05-07T09:13:17;20.40;99.90
23703;DHT22;12030;50.376;8.762;2023-05-07T09:15:43;20.50;99.90
23703;DHT22;12030;50.376;8.762;2023-05-07T09:18:09;20.60;99.90
23703;DHT22;12030;50.376;8.762;2023-05-07T09:20:36;20.80;99.90
23703;DHT22;12030;50.376;8.762;2023-05-07T09:23:02;21.00;99.90
23703;DHT22;12030;50.376;8.762;2023-05-07T09:25:32;21.00;99.90
23703;DHT22;12030;50.376;8.762;2023-05-07T09:27:58;21.20;99.90
23703;DHT22;12030;50.376;8.762;2023-05-07T09:30:30;21.10;99.90
23703;DHT22;12030;50.376;8.762;2023-05-07T09:32:58;21.30;99.90
23703;DHT22;12030;50.376;8.762;2023-05-07T09:35:24;21.30;99.90
23703;DHT22;12030;50.376;8.762;2023-05-07T09:37:56;21.20;99.90
23703;DHT22;12030;50.376;8.762;2023-05-07T09:40:24;21.10;99.90
23703;DHT22;12030;50.376;8.762;2023-05-07T09:42:50;21.20;99.90
23703;DHT22;12030;50.376;8.762;2023-05-07T09:45:25;21.10;99.90
23703;DHT22;12030;50.376;8.762;2023-05-07T09:47:57;21.10;99.90
23703;DHT22;12030;50.376;8.762;2023-05-07T09:50:36;21.10;99.90
23703;DHT22;12030;50.376;8.762;2023-05-07T09:53:05;21.20;99.90
23703;DHT22;12030;50.376;8.762;2023-05-07T09:55:31;21.30;99.90
23703;DHT22;12030;50.376;8.762;2023-05-07T09:57:57;21.50;99.90
23703;DHT22;12030;50.376;8.762;2023-05-07T10:00:24;21.60;99.90
23703;DHT22;12030;50.376;8.762;2023-05-07T10:02:52;21.70;99.90
23703;DHT22;12030;50.376;8.762;2023-05-07T10:05:21;21.20;99.90
23703;DHT22;12030;50.376;8.762;2023-05-07T10:07:47;21.40;99.90
23703;DHT22;12030;50.376;8.762;2023-05-07T10:10:14;21.30;99.90
23703;DHT22;12030;50.376;8.762;2023-05-07T10:12:41;21.30;99.90
23703;DHT22;12030;50.376;8.762;2023-05-07T10:15:07;21.20;99.90
23703;DHT22;12030;50.376;8.762;2023-05-07T10:17:37;21.50;99.90
23703;DHT22;12030;50.376;8.762;2023-05-07T10:20:04;21.40;99.90
23703;DHT22;12030;50.376;8.762;2023-05-07T10:22:37;21.50;99.90
23703;DHT22;12030;50.376;8.762;2023-05-07T10:25:15;21.50;99.90
23703;DHT22;12030;50.376;8.762;2023-05-07T10:27:42;21.60;99.90
23703;DHT22;12030;50.376;8.762;2023-05-07T10:32:44;21.60;99.90
23703;DHT22;12030;50.376;8.762;2023-05-07T10:35:16;21.50;99.90
23703;DHT22;12030;50.376;8.762;2023-05-07T10:37:43;21.70;99.90
23703;DHT22;12030;50.376;8.762;2023-05-07T10:40:10;21.70;99.90
23703;DHT22;12030;50.376;8.762;2023-05-07T10:42:36;21.70;99.90
23703;DHT22;12030;50.376;8.762;2023-05-07T10:45:14;21.80;99.90
23703;DHT22;12030;50.376;8.762;2023-05-07T10:48:15;21.80;99.90
23703;DHT22;12030;50.376;8.762;2023-05-07T10:50:45;21.90;99.90
23703;DHT22;12030;50.376;8.762;2023-05-07T10:55:50;22.30;99.90
23703;DHT22;12030;50.376;8.762;2023-05-07T11:00:48;22.50;99.90
23703;DHT22;12030;50.376;8.762;2023-05-07T11:03:14;22.50;99.90
23703;DHT22;12030;50.376;8.762;2023-05-07T11:05:41;22.60;99.90
23703;DHT22;12030;50.376;8.762;2023-05-07T11:08:07;22.80;99.90
23703;DHT22;12030;50.376;8.762;2023-05-07T11:10:54;22.90;99.90
23703;DHT22;12030;50.376;8.762;2023-05-07T11:13:45;22.90;99.90
23703;DHT22;12030;50.376;8.762;2023-05-07T11:16:22;23.10;99.90
23703;DHT22;12030;50.376;8.762;2023-05-07T11:18:53;23.20;99.90
23703;DHT22;12030;50.376;8.762;2023-05-07T11:21:38;23.40;99.90
23703;DHT22;12030;50.376;8.762;2023-05-07T11:24:08;23.50;99.90
23703;DHT22;12030;50.376;8.762;2023-05-07T11:26:46;23.50;99.90
23703;DHT22;12030;50.376;8.762;2023-05-07T11:29:13;23.30;99.90
23703;DHT22;12030;50.376;8.762;2023-05-07T11:31:39;23.20;99.90
23703;DHT22;12030;50.376;8.762;2023-05-07T11:34:05;22.90;99.90
23703;DHT22;12030;50.376;8.762;2023-05-07T11:36:32;22.80;99.90
23703;DHT22;12030;50.376;8.762;2023-05-07T11:38:58;22.80;99.90
23703;DHT22;12030;50.376;8.762;2023-05-07T11:41:33;23.00;99.90
23703;DHT22;12030;50.376;8.762;2023-05-07T11:44:00;23.30;99.90
23703;DHT22;12030;50.376;8.762;2023-05-07T11:46:27;23.50;99.90
23703;DHT22;12030;50.376;8.762;2023-05-07T11:48:53;23.30;99.90
23703;DHT22;12030;50.376;8.762;2023-05-07T11:51:20;23.50;99.90
23703;DHT22;12030;50.376;8.762;2023-05-07T11:53:46;23.60;99.90
23703;DHT22;12030;50.376;8.762;2023-05-07T11:56:13;23.70;99.70
23703;DHT22;12030;50.376;8.762;2023-05-07T11:58:40;23.90;99.90
23703;DHT22;12030;50.376;8.762;2023-05-07T12:01:11;23.90;99.40
23703;DHT22;12030;50.376;8.762;2023-05-07T12:03:37;23.90;99.90
23703;DHT22;12030;50.376;8.762;2023-05-07T12:06:05;24.00;99.90
23703;DHT22;12030;50.376;8.762;2023-05-07T12:08:31;24.10;99.90
23703;DHT22;12030;50.376;8.762;2023-05-07T12:10:56;24.10;99.60
23703;DHT22;12030;50.376;8.762;2023-05-07T12:13:24;24.10;99.60
23703;DHT22;12030;50.376;8.762;2023-05-07T12:15:53;24.10;99.00
23703;DHT22;12030;50.376;8.762;2023-05-07T12:18:20;24.20;99.90
23703;DHT22;12030;50.376;8.762;2023-05-07T12:20:47;24.20;99.00
23703;DHT22;12030;50.376;8.762;2023-05-07T12:23:13;24.20;99.20
23703;DHT22;12030;50.376;8.762;2023-05-07T12:25:40;24.30;99.50
23703;DHT22;12030;50.376;8.762;2023-05-07T12:28:16;24.40;98.50
23703;DHT22;12030;50.376;8.762;2023-05-07T12:30:43;24.30;97.70
23703;DHT22;12030;50.376;8.762;2023-05-07T12:33:09;24.50;96.50
23703;DHT22;12030;50.376;8.762;2023-05-07T12:35:40;24.50;96.40
23703;DHT22;12030;50.376;8.762;2023-05-07T12:38:14;24.60;96.10
23703;DHT22;12030;50.376;8.762;2023-05-07T12:43:15;24.60;96.00
23703;DHT22;12030;50.376;8.762;2023-05-07T12:45:42;24.40;95.10
23703;DHT22;12030;50.376;8.762;2023-05-07T12:48:10;24.70;98.20
23703;DHT22;12030;50.376;8.762;2023-05-07T12:50:36;25.00;95.80
23703;DHT22;12030;50.376;8.762;2023-05-07T12:53:04;25.20;95.30
23703;DHT22;12030;50.376;8.762;2023-05-07T12:55:31;25.40;94.60
23703;DHT22;12030;50.376;8.762;2023-05-07T12:58:01;25.40;94.30
23703;DHT22;12030;50.376;8.762;2023-05-07T13:00:36;25.50;93.30
23703;DHT22;12030;50.376;8.762;2023-05-07T13:03:02;25.70;94.60
23703;DHT22;12030;50.376;8.762;2023-05-07T13:05:28;25.80;94.80
23703;DHT22;12030;50.376;8.762;2023-05-07T13:07:55;25.90;93.00
23703;DHT22;12030;50.376;8.762;2023-05-07T13:10:24;25.60;92.40
23703;DHT22;12030;50.376;8.762;2023-05-07T13:12:50;25.50;92.10
23703;DHT22;12030;50.376;8.762;2023-05-07T13:15:16;25.10;92.60
23703;DHT22;12030;50.376;8.762;2023-05-07T13:17:42;24.80;92.30
23703;DHT22;12030;50.376;8.762;2023-05-07T13:20:09;25.50;93.70
23703;DHT22;12030;50.376;8.762;2023-05-07T13:22:35;25.90;92.70
23703;DHT22;12030;50.376;8.762;2023-05-07T13:25:01;26.40;91.80
23703;DHT22;12030;50.376;8.762;2023-05-07T13:27:26;26.50;91.30
23703;DHT22;12030;50.376;8.762;2023-05-07T13:29:52;26.00;90.20
23703;DHT22;12030;50.376;8.762;2023-05-07T13:32:17;26.20;90.40
23703;DHT22;12030;50.376;8.762;2023-05-07T13:34:43;26.30;90.70
23703;DHT22;12030;50.376;8.762;2023-05-07T13:37:08;26.40;90.00
23703;DHT22;12030;50.376;8.762;2023-05-07T13:39:34;26.50;89.10
23703;DHT22;12030;50.376;8.762;2023-05-07T13:41:59;26.90;90.00
23703;DHT22;12030;50.376;8.762;2023-05-07T13:44:26;27.10;89.00
23703;DHT22;12030;50.376;8.762;2023-05-07T13:46:51;26.70;87.90
23703;DHT22;12030;50.376;8.762;2023-05-07T13:49:17;26.70;92.00
23703;DHT22;12030;50.376;8.762;2023-05-07T13:51:42;26.80;90.00
23703;DHT22;12030;50.376;8.762;2023-05-07T13:54:08;26.70;87.90
23703;DHT22;12030;50.376;8.762;2023-05-07T13:56:34;26.50;90.20
23703;DHT22;12030;50.376;8.762;2023-05-07T13:58:59;26.40;91.90
23703;DHT22;12030;50.376;8.762;2023-05-07T14:01:25;26.20;89.90
23703;DHT22;12030;50.376;8.762;2023-05-07T14:03:50;26.00;90.40
23703;DHT22;12030;50.376;8.762;2023-05-07T14:06:16;25.90;90.40
23703;DHT22;12030;50.376;8.762;2023-05-07T14:08:41;26.10;90.60
23703;DHT22;12030;50.376;8.762;2023-05-07T14:11:07;25.90;90.70
23703;DHT22;12030;50.376;8.762;2023-05-07T14:13:32;25.50;91.00
23703;DHT22;12030;50.376;8.762;2023-05-07T14:15:59;25.40;92.60
23703;DHT22;12030;50.376;8.762;2023-05-07T14:18:26;25.40;92.20
23703;DHT22;12030;50.376;8.762;2023-05-07T14:20:51;25.30;92.30
23703;DHT22;12030;50.376;8.762;2023-05-07T14:23:17;25.30;90.90
23703;DHT22;12030;50.376;8.762;2023-05-07T14:25:45;25.10;90.60
23703;DHT22;12030;50.376;8.762;2023-05-07T14:28:13;25.20;92.70
23703;DHT22;12030;50.376;8.762;2023-05-07T14:30:38;25.20;92.00
23703;DHT22;12030;50.376;8.762;2023-05-07T14:33:04;25.10;91.40
23703;DHT22;12030;50.376;8.762;2023-05-07T14:35:29;25.00;90.60
23703;DHT22;12030;50.376;8.762;2023-05-07T14:37:54;24.90;91.40
23703;DHT22;12030;50.376;8.762;2023-05-07T14:40:20;24.90;91.60
23703;DHT22;12030;50.376;8.762;2023-05-07T14:42:46;24.80;91.80
23703;DHT22;12030;50.376;8.762;2023-05-07T14:45:11;24.80;91.10
23703;DHT22;12030;50.376;8.762;2023-05-07T14:47:37;24.60;91.50
23703;DHT22;12030;50.376;8.762;2023-05-07T14:50:02;24.50;91.80
23703;DHT22;12030;50.376;8.762;2023-05-07T14:52:28;24.50;92.10
23703;DHT22;12030;50.376;8.762;2023-05-07T14:54:53;24.50;92.20
23703;DHT22;12030;50.376;8.762;2023-05-07T14:57:19;24.50;92.10
23703;DHT22;12030;50.376;8.762;2023-05-07T14:59:45;24.50;92.70
23703;DHT22;12030;50.376;8.762;2023-05-07T15:02:11;24.50;91.80
23703;DHT22;12030;50.376;8.762;2023-05-07T15:04:37;24.40;92.00
23703;DHT22;12030;50.376;8.762;2023-05-07T15:07:14;24.40;92.30
23703;DHT22;12030;50.376;8.762;2023-05-07T15:09:44;24.30;92.50
23703;DHT22;12030;50.376;8.762;2023-05-07T15:12:09;24.30;91.00
23703;DHT22;12030;50.376;8.762;2023-05-07T15:14:36;24.30;91.60
23703;DHT22;12030;50.376;8.762;2023-05-07T15:17:01;24.20;92.40
23703;DHT22;12030;50.376;8.762;2023-05-07T15:19:27;24.20;92.20
23703;DHT22;12030;50.376;8.762;2023-05-07T15:21:56;24.10;92.00
23703;DHT22;12030;50.376;8.762;2023-05-07T15:24:23;24.00;92.70
23703;DHT22;12030;50.376;8.762;2023-05-07T15:26:48;23.90;92.70
23703;DHT22;12030;50.376;8.762;2023-05-07T15:29:14;23.80;93.00
23703;DHT22;12030;50.376;8.762;2023-05-07T15:31:39;23.80;93.50
23703;DHT22;12030;50.376;8.762;2023-05-07T15:34:05;23.70;92.80
23703;DHT22;12030;50.376;8.762;2023-05-07T15:36:31;23.70;92.80